createdAt,value
2023-02-18T00:00:18.850Z,24.88
2023-02-18T00:03:41.602Z,24.87
2023-02-18T00:07:03.456Z,24.86
2023-02-18T00:10:26.569Z,24.85
2023-02-18T00:14:00.492Z,24.83
2023-02-18T00:17:22.434Z,24.79
2023-02-18T00:20:44.227Z,24.77
2023-02-18T00:24:07.201Z,24.74
2023-02-18T00:27:30.917Z,24.71
2023-02-18T00:30:52.897Z,24.71
2023-02-18T00:34:14.972Z,24.70
2023-02-18T00:37:36.799Z,24.69
2023-02-18T00:40:59.002Z,24.67
2023-02-18T00:44:20.842Z,24.64
2023-02-18T00:47:45.366Z,24.63
2023-02-18T00:51:08.131Z,24.60
2023-02-18T00:54:29.986Z,24.59
2023-02-18T00:57:52.090Z,24.57
2023-02-18T01:01:14.128Z,24.55
2023-02-18T01:04:35.940Z,24.54
2023-02-18T01:07:57.927Z,24.52
2023-02-18T01:11:23.049Z,24.51
2023-02-18T01:14:46.217Z,24.51
2023-02-18T01:18:08.980Z,24.50
2023-02-18T01:21:30.801Z,24.47
2023-02-18T01:24:52.914Z,24.45
2023-02-18T01:28:15.465Z,24.44
2023-02-18T01:31:41.719Z,24.42
2023-02-18T01:35:05.049Z,24.41
2023-02-18T01:38:29.384Z,24.39
2023-02-18T01:41:51.962Z,24.40
2023-02-18T01:45:36.064Z,24.41
2023-02-18T01:48:59.296Z,24.40
2023-02-18T01:52:25.513Z,24.40
2023-02-18T01:55:49.076Z,24.37
2023-02-18T01:59:17.144Z,24.38
2023-02-18T02:02:44.913Z,24.35
2023-02-18T02:06:15.864Z,24.32
2023-02-18T02:09:40.400Z,24.31
2023-02-18T02:13:39.152Z,24.28
2023-02-18T02:17:16.141Z,24.24
2023-02-18T02:21:08.916Z,24.22
2023-02-18T02:24:50.079Z,24.19
2023-02-18T02:28:33.960Z,24.16
2023-02-18T02:32:11.110Z,24.15
2023-02-18T02:35:48.717Z,24.09
2023-02-18T02:39:21.910Z,24.02
2023-02-18T02:42:59.032Z,23.99
2023-02-18T02:46:35.696Z,23.91
2023-02-18T02:50:08.452Z,23.87
2023-02-18T02:53:31.801Z,23.82
2023-02-18T02:57:08.215Z,23.80
2023-02-18T03:00:55.472Z,23.76
2023-02-18T03:04:45.719Z,23.72
2023-02-18T03:08:46.550Z,23.75
2023-02-18T03:12:20.017Z,23.80
2023-02-18T03:15:56.184Z,23.84
2023-02-18T03:19:26.046Z,23.88
2023-02-18T03:22:52.310Z,23.91
2023-02-18T03:26:16.422Z,23.91
2023-02-18T03:29:41.141Z,23.91
2023-02-18T03:33:05.444Z,23.91
2023-02-18T03:36:27.801Z,23.91
2023-02-18T03:39:52.765Z,23.89
2023-02-18T03:43:15.962Z,23.90
2023-02-18T03:46:39.969Z,23.91
2023-02-18T03:50:01.812Z,23.91
2023-02-18T03:53:23.658Z,23.91
2023-02-18T03:56:45.841Z,23.90
2023-02-18T04:00:09.219Z,23.89
2023-02-18T04:03:37.407Z,23.84
2023-02-18T04:06:59.266Z,23.84
2023-02-18T04:10:22.784Z,23.87
2023-02-18T04:13:44.516Z,23.86
2023-02-18T04:17:06.348Z,23.81
2023-02-18T04:20:28.351Z,23.80
2023-02-18T04:23:50.089Z,23.78
2023-02-18T04:27:12.101Z,23.77
2023-02-18T04:30:34.584Z,23.79
2023-02-18T04:33:56.475Z,23.79
2023-02-18T04:37:18.184Z,23.81
2023-02-18T04:40:39.918Z,23.81
2023-02-18T04:44:01.767Z,23.79
2023-02-18T04:47:24.261Z,23.80
2023-02-18T04:50:46.345Z,23.81
2023-02-18T04:54:08.092Z,23.81
2023-02-18T04:57:29.812Z,23.79
2023-02-18T05:00:51.733Z,23.77
2023-02-18T05:04:13.519Z,23.76
2023-02-18T05:07:35.443Z,23.75
2023-02-18T05:10:57.222Z,23.72
2023-02-18T05:14:18.991Z,23.71
2023-02-18T05:17:40.885Z,23.69
2023-02-18T05:21:02.678Z,23.70
2023-02-18T05:24:24.486Z,23.69
2023-02-18T05:27:46.246Z,23.72
2023-02-18T05:31:08.671Z,23.74
2023-02-18T05:34:30.449Z,23.72
2023-02-18T05:37:52.227Z,23.71
2023-02-18T05:41:13.980Z,23.67
2023-02-18T05:44:35.815Z,23.66
2023-02-18T05:47:57.554Z,23.66
2023-02-18T05:51:19.300Z,23.67
2023-02-18T05:54:41.152Z,23.68
2023-02-18T05:58:02.887Z,23.68
2023-02-18T06:01:24.980Z,23.67
2023-02-18T06:04:46.736Z,23.66
2023-02-18T06:08:08.508Z,23.65
2023-02-18T06:11:31.131Z,23.65
2023-02-18T06:14:53.134Z,23.66
2023-02-18T06:18:14.855Z,23.67
2023-02-18T06:21:36.739Z,23.67
2023-02-18T06:24:58.474Z,23.68
2023-02-18T06:28:20.218Z,23.69
2023-02-18T06:31:42.032Z,23.70
2023-02-18T06:35:03.936Z,23.72
2023-02-18T06:38:26.871Z,23.73
2023-02-18T06:41:48.677Z,23.72
2023-02-18T06:45:10.474Z,23.74
2023-02-18T06:48:32.580Z,23.76
2023-02-18T06:51:54.331Z,23.77
2023-02-18T06:55:16.121Z,23.78
2023-02-18T06:58:38.425Z,23.78
2023-02-18T07:02:00.879Z,23.80
2023-02-18T07:05:22.759Z,23.81
2023-02-18T07:08:47.268Z,23.85
2023-02-18T07:12:08.998Z,23.89
2023-02-18T07:15:30.756Z,23.94
2023-02-18T07:19:03.682Z,23.94
2023-02-18T07:22:28.438Z,23.97
2023-02-18T07:25:50.156Z,24.01
2023-02-18T07:29:11.890Z,24.12
2023-02-18T07:32:33.863Z,24.22
2023-02-18T07:35:57.292Z,24.38
2023-02-18T07:39:20.864Z,24.52
2023-02-18T07:42:44.018Z,24.70
2023-02-18T07:46:09.769Z,24.92
2023-02-18T07:49:32.803Z,25.12
2023-02-18T07:52:55.109Z,25.34
2023-02-18T07:56:18.625Z,25.64
2023-02-18T07:59:41.157Z,25.80
2023-02-18T08:03:03.177Z,25.85
2023-02-18T08:06:33.129Z,25.87
2023-02-18T08:09:55.046Z,25.90
2023-02-18T08:13:17.099Z,25.84
2023-02-18T08:16:42.020Z,25.80
2023-02-18T08:20:03.972Z,25.75
2023-02-18T08:23:26.455Z,25.73
2023-02-18T08:26:59.819Z,25.74
2023-02-18T08:30:22.655Z,25.88
2023-02-18T08:33:44.545Z,26.07
2023-02-18T08:37:06.409Z,26.16
2023-02-18T08:40:28.235Z,26.34
2023-02-18T08:43:50.358Z,26.46
2023-02-18T08:48:13.282Z,26.05
2023-02-18T08:51:00.210Z,25.19
2023-02-18T08:54:24.046Z,24.50
2023-02-18T08:57:45.832Z,24.12
2023-02-18T09:01:09.700Z,23.71
2023-02-18T09:04:31.904Z,23.40
2023-02-18T09:07:53.722Z,23.38
2023-02-18T09:11:16.090Z,23.38
2023-02-18T09:14:37.928Z,22.97
2023-02-18T09:18:04.325Z,22.64
2023-02-18T09:21:29.987Z,22.51
2023-02-18T09:24:51.897Z,22.53
2023-02-18T09:28:14.433Z,22.61
2023-02-18T09:31:38.051Z,22.73
2023-02-18T09:35:02.901Z,22.77
2023-02-18T09:38:24.976Z,22.69
2023-02-18T09:41:51.921Z,22.45
2023-02-18T09:45:13.941Z,22.27
2023-02-18T09:48:44.170Z,22.15
2023-02-18T09:52:23.956Z,21.98
2023-02-18T09:55:49.242Z,22.04
2023-02-18T09:59:25.152Z,21.98
2023-02-18T10:02:56.143Z,21.89
2023-02-18T10:06:24.841Z,21.82
2023-02-18T10:09:47.763Z,21.60
2023-02-18T10:13:28.696Z,21.46
2023-02-18T10:16:51.520Z,21.31
2023-02-18T10:20:17.468Z,21.18
2023-02-18T10:24:01.196Z,21.20
2023-02-18T10:27:28.999Z,21.27
2023-02-18T10:31:04.305Z,21.23
2023-02-18T10:34:48.447Z,21.36
2023-02-18T10:38:32.148Z,21.50
2023-02-18T10:42:31.172Z,21.68
2023-02-18T10:46:05.154Z,21.64
2023-02-18T10:49:45.626Z,21.68
2023-02-18T10:53:34.444Z,21.74
2023-02-18T10:57:00.866Z,21.65
2023-02-18T11:00:25.374Z,21.60
2023-02-18T11:03:49.601Z,21.45
2023-02-18T11:07:32.592Z,21.20
2023-02-18T11:10:55.005Z,21.12
2023-02-18T11:14:21.522Z,21.13
2023-02-18T11:21:24.551Z,20.96
2023-02-18T11:24:48.736Z,21.07
2023-02-18T11:28:16.874Z,21.19
2023-02-18T11:31:45.573Z,21.45
2023-02-18T11:35:07.600Z,21.65
2023-02-18T11:38:42.360Z,21.70
2023-02-18T11:42:07.662Z,21.73
2023-02-18T11:45:34.056Z,21.73
2023-02-18T11:48:56.129Z,21.80
2023-02-18T11:52:27.905Z,21.92
2023-02-18T11:55:56.458Z,22.12
2023-02-18T11:59:18.217Z,22.53
2023-02-18T12:02:40.920Z,22.88
2023-02-18T12:06:06.393Z,23.00
2023-02-18T12:13:22.038Z,23.02
2023-02-18T12:17:17.661Z,23.10
2023-02-18T12:20:49.447Z,23.28
2023-02-18T12:24:18.591Z,23.17
2023-02-18T12:28:04.584Z,22.95
2023-02-18T12:32:04.561Z,22.69
2023-02-18T12:36:17.892Z,22.57
2023-02-18T12:40:04.111Z,22.85
2023-02-18T12:43:42.284Z,23.13
2023-02-18T12:47:13.498Z,23.34
2023-02-18T12:50:55.954Z,23.51
2023-02-18T12:54:54.703Z,23.85
2023-02-18T12:58:25.909Z,24.45
2023-02-18T13:02:15.062Z,24.83
2023-02-18T13:05:55.098Z,25.31
2023-02-18T13:09:30.213Z,25.78
2023-02-18T13:13:01.406Z,26.05
2023-02-18T13:16:24.130Z,26.20
2023-02-18T13:20:07.620Z,26.33
2023-02-18T13:23:33.133Z,26.22
2023-02-18T13:27:22.183Z,26.08
2023-02-18T13:30:52.985Z,25.97
2023-02-18T13:34:46.990Z,25.95
2023-02-18T13:38:30.794Z,25.82
2023-02-18T13:42:12.144Z,25.68
2023-02-18T13:45:34.161Z,25.59
2023-02-18T13:49:04.882Z,25.44
2023-02-18T13:52:27.405Z,25.34
2023-02-18T13:55:54.993Z,25.32
2023-02-18T13:59:45.590Z,25.27
2023-02-18T14:03:42.684Z,25.18
2023-02-18T14:07:23.193Z,25.12
2023-02-18T14:11:14.526Z,25.04
2023-02-18T14:14:38.204Z,25.02
2023-02-18T14:18:15.026Z,24.91
2023-02-18T14:21:39.457Z,24.64
2023-02-18T14:25:16.946Z,24.39
2023-02-18T14:28:45.307Z,24.19
2023-02-18T14:32:11.862Z,24.04
2023-02-18T14:35:42.942Z,23.97
2023-02-18T14:39:42.156Z,23.94
2023-02-18T14:43:16.031Z,23.76
2023-02-18T14:46:57.031Z,23.65
2023-02-18T14:50:25.021Z,23.63
2023-02-18T14:53:47.871Z,23.54
2023-02-18T14:57:18.274Z,23.42
2023-02-18T15:00:42.908Z,23.34
2023-02-18T15:04:05.066Z,23.21
2023-02-18T15:07:27.336Z,23.14
2023-02-18T15:11:05.219Z,23.20
2023-02-18T15:14:34.442Z,23.29
2023-02-18T15:17:56.328Z,23.37
2023-02-18T15:21:31.113Z,23.19
2023-02-18T15:24:55.082Z,23.13
2023-02-18T15:28:26.880Z,23.06
2023-02-18T15:31:49.763Z,22.88
2023-02-18T15:35:18.584Z,22.66
2023-02-18T15:38:44.567Z,22.45
2023-02-18T15:42:23.929Z,22.24
2023-02-18T15:45:47.091Z,22.06
2023-02-18T15:49:08.826Z,21.87
2023-02-18T15:52:33.961Z,21.74
2023-02-18T15:55:56.634Z,21.61
2023-02-18T15:59:43.322Z,21.45
2023-02-18T16:03:16.505Z,21.31
2023-02-18T16:06:45.962Z,21.22
2023-02-18T16:10:44.906Z,21.10
2023-02-18T16:14:07.236Z,20.94
2023-02-18T16:17:30.049Z,20.90
2023-02-18T16:21:02.128Z,20.85
2023-02-18T16:24:29.363Z,20.92
2023-02-18T16:28:03.167Z,21.11
2023-02-18T16:31:25.077Z,21.19
2023-02-18T16:34:49.099Z,21.24
2023-02-18T16:38:20.331Z,21.27
2023-02-18T16:41:42.155Z,21.31
2023-02-18T16:45:06.362Z,21.35
2023-02-18T16:48:32.522Z,21.33
2023-02-18T16:51:54.395Z,21.34
2023-02-18T16:55:24.366Z,21.33
2023-02-18T16:58:46.444Z,21.31
2023-02-18T17:02:18.743Z,21.31
2023-02-18T17:05:41.247Z,21.28
2023-02-18T17:09:03.118Z,21.26
2023-02-18T17:12:25.488Z,21.27
2023-02-18T17:19:26.646Z,21.39
2023-02-18T17:22:48.485Z,21.59
2023-02-18T17:26:32.631Z,21.76
2023-02-18T17:29:57.006Z,21.89
2023-02-18T17:33:19.310Z,22.00
2023-02-18T17:36:45.486Z,22.05
2023-02-18T17:40:20.290Z,22.10
2023-02-18T17:43:42.491Z,22.12
2023-02-18T17:47:04.388Z,22.16
2023-02-18T17:50:26.974Z,22.20
2023-02-18T17:53:49.874Z,22.21
2023-02-18T17:57:11.656Z,22.19
2023-02-18T18:00:36.631Z,22.22
2023-02-18T18:03:58.641Z,22.26
2023-02-18T18:07:20.583Z,22.27
2023-02-18T18:10:50.216Z,22.28
2023-02-18T18:14:14.813Z,22.27
2023-02-18T18:17:39.017Z,22.27
2023-02-18T18:21:01.581Z,22.23
2023-02-18T18:24:23.328Z,22.22
2023-02-18T18:27:45.436Z,22.21
2023-02-18T18:31:14.514Z,22.20
2023-02-18T18:34:36.356Z,22.17
2023-02-18T18:37:59.128Z,22.14
2023-02-18T18:41:22.701Z,22.14
2023-02-18T18:44:44.473Z,22.12
2023-02-18T18:48:09.340Z,22.12
2023-02-18T18:51:32.794Z,22.30
2023-02-18T18:54:55.045Z,22.49
2023-02-18T18:58:26.200Z,22.22
2023-02-18T19:01:48.015Z,21.78
2023-02-18T19:05:21.070Z,21.40
2023-02-18T19:08:43.063Z,21.18
2023-02-18T19:12:04.973Z,21.02
2023-02-18T19:15:27.125Z,20.91
2023-02-18T19:18:49.435Z,20.89
2023-02-18T19:22:11.244Z,21.15
2023-02-18T19:25:33.190Z,21.41
2023-02-18T19:28:55.069Z,21.62
2023-02-18T19:32:16.898Z,21.78
2023-02-18T19:35:40.286Z,21.91
2023-02-18T19:39:02.072Z,22.01
2023-02-18T19:42:23.898Z,22.09
2023-02-18T19:45:47.417Z,22.15
2023-02-18T19:49:11.515Z,22.21
2023-02-18T19:52:33.848Z,22.27
2023-02-18T19:56:02.210Z,22.32
2023-02-18T19:59:24.646Z,22.36
2023-02-18T20:02:46.850Z,22.37
2023-02-18T20:06:19.780Z,22.38
2023-02-18T20:09:41.578Z,22.38
2023-02-18T20:13:05.875Z,22.38
2023-02-18T20:16:27.784Z,22.43
2023-02-18T20:19:49.826Z,22.48
2023-02-18T20:23:11.629Z,22.52
2023-02-18T20:26:33.449Z,22.52
2023-02-18T20:29:55.297Z,22.51
2023-02-18T20:33:17.098Z,22.52
2023-02-18T20:36:39.041Z,22.51
2023-02-18T20:40:01.018Z,22.48
2023-02-18T20:43:23.080Z,22.48
2023-02-18T20:46:45.110Z,22.46
2023-02-18T20:50:07.482Z,22.45
2023-02-18T20:53:33.535Z,22.44
2023-02-18T20:56:55.404Z,22.42
2023-02-18T21:00:17.580Z,22.41
2023-02-18T21:03:39.617Z,22.40
2023-02-18T21:07:01.662Z,22.40
2023-02-18T21:10:24.515Z,22.39
2023-02-18T21:13:48.522Z,22.36
2023-02-18T21:17:10.553Z,22.34
2023-02-18T21:24:08.301Z,22.32
2023-02-18T21:27:30.113Z,22.31
2023-02-18T21:30:51.929Z,22.31
2023-02-18T21:34:17.286Z,22.29
2023-02-18T21:37:39.148Z,22.26
2023-02-18T21:41:04.793Z,22.26
2023-02-18T21:44:40.189Z,22.25
2023-02-18T21:48:22.494Z,22.23
2023-02-18T21:51:59.275Z,22.22
2023-02-18T21:55:21.082Z,22.21
2023-02-18T21:58:44.352Z,22.17
2023-02-18T22:02:07.497Z,22.12
2023-02-18T22:05:30.864Z,22.07
2023-02-18T22:08:52.904Z,22.02
2023-02-18T22:12:15.073Z,21.97
2023-02-18T22:15:36.881Z,21.94
2023-02-18T22:18:58.826Z,21.90
2023-02-18T22:22:20.668Z,21.90
2023-02-18T22:25:42.474Z,21.99
2023-02-18T22:29:04.666Z,22.13
2023-02-18T22:32:26.565Z,22.25
2023-02-18T22:35:48.362Z,22.34
2023-02-18T22:39:11.091Z,22.42
2023-02-18T22:46:20.265Z,22.51
2023-02-18T22:49:44.439Z,22.45
2023-02-18T22:53:06.264Z,22.39
2023-02-18T22:56:29.426Z,22.49
2023-02-18T22:59:51.353Z,22.65
2023-02-18T23:03:13.147Z,22.77
2023-02-18T23:06:36.400Z,22.85
2023-02-18T23:09:58.299Z,22.90
2023-02-18T23:13:20.130Z,22.92
2023-02-18T23:17:00.557Z,22.94
2023-02-18T23:20:42.365Z,22.93
2023-02-18T23:24:04.426Z,22.92
2023-02-18T23:27:26.896Z,22.92
2023-02-18T23:30:48.728Z,22.92
2023-02-18T23:34:15.663Z,22.92
2023-02-18T23:37:56.269Z,22.92
2023-02-18T23:41:19.481Z,22.90
2023-02-18T23:44:41.442Z,22.90
2023-02-18T23:48:03.335Z,22.90
2023-02-18T23:51:25.170Z,22.89
2023-02-18T23:54:47.134Z,22.88
2023-02-18T23:58:08.929Z,22.86
